sensor_id;sensor_type;location;lat;lon;timestamp;temperature;humidity
19007;DHT22;9636;47.382;8.480;2022-10-01T00:01:41;8.20;99.90
19007;DHT22;9636;47.382;8.480;2022-10-01T00:04:08;8.20;99.90
19007;DHT22;9636;47.382;8.480;2022-10-01T00:06:35;8.20;99.90
19007;DHT22;9636;47.382;8.480;2022-10-01T00:09:02;8.30;99.90
19007;DHT22;9636;47.382;8.480;2022-10-01T00:11:29;8.30;99.90
19007;DHT22;9636;47.382;8.480;2022-10-01T00:13:56;8.20;99.90
19007;DHT22;9636;47.382;8.480;2022-10-01T00:16:27;8.20;99.90
19007;DHT22;9636;47.382;8.480;2022-10-01T00:18:54;8.20;99.90
19007;DHT22;9636;47.382;8.480;2022-10-01T00:21:24;8.20;99.90
19007;DHT22;9636;47.382;8.480;2022-10-01T00:23:53;8.10;99.90
19007;DHT22;9636;47.382;8.480;2022-10-01T00:26:22;8.10;99.90
19007;DHT22;9636;47.382;8.480;2022-10-01T00:28:53;8.00;99.90
19007;DHT22;9636;47.382;8.480;2022-10-01T00:31:20;8.00;99.90
19007;DHT22;9636;47.382;8.480;2022-10-01T00:33:50;8.00;99.90
19007;DHT22;9636;47.382;8.480;2022-10-01T00:36:17;8.00;99.90
19007;DHT22;9636;47.382;8.480;2022-10-01T00:38:44;7.90;99.90
19007;DHT22;9636;47.382;8.480;2022-10-01T00:41:14;7.90;99.90
19007;DHT22;9636;47.382;8.480;2022-10-01T00:43:43;7.80;99.90
19007;DHT22;9636;47.382;8.480;2022-10-01T00:46:16;7.80;99.90
19007;DHT22;9636;47.382;8.480;2022-10-01T00:48:53;7.80;99.90
19007;DHT22;9636;47.382;8.480;2022-10-01T00:51:23;7.80;99.90
19007;DHT22;9636;47.382;8.480;2022-10-01T00:53:53;7.70;99.90
19007;DHT22;9636;47.382;8.480;2022-10-01T00:56:24;7.70;99.90
19007;DHT22;9636;47.382;8.480;2022-10-01T00:58:51;7.70;99.90
19007;DHT22;9636;47.382;8.480;2022-10-01T01:01:20;7.70;99.90
19007;DHT22;9636;47.382;8.480;2022-10-01T01:03:50;7.70;99.90
19007;DHT22;9636;47.382;8.480;2022-10-01T01:06:17;7.60;99.90
19007;DHT22;9636;47.382;8.480;2022-10-01T01:08:44;7.60;99.90
19007;DHT22;9636;47.382;8.480;2022-10-01T01:11:15;7.60;99.90
19007;DHT22;9636;47.382;8.480;2022-10-01T01:13:50;7.70;99.90
19007;DHT22;9636;47.382;8.480;2022-10-01T01:16:25;7.70;99.90
19007;DHT22;9636;47.382;8.480;2022-10-01T01:19:01;7.60;99.90
19007;DHT22;9636;47.382;8.480;2022-10-01T01:21:29;7.70;99.90
19007;DHT22;9636;47.382;8.480;2022-10-01T01:24:33;7.70;99.90
19007;DHT22;9636;47.382;8.480;2022-10-01T01:27:13;7.70;99.90
19007;DHT22;9636;47.382;8.480;2022-10-01T01:29:47;7.70;99.90
19007;DHT22;9636;47.382;8.480;2022-10-01T01:32:22;7.70;99.90
19007;DHT22;9636;47.382;8.480;2022-10-01T01:34:51;7.80;99.90
19007;DHT22;9636;47.382;8.480;2022-10-01T01:37:23;7.80;99.90
19007;DHT22;9636;47.382;8.480;2022-10-01T01:39:52;7.70;99.90
19007;DHT22;9636;47.382;8.480;2022-10-01T01:42:25;7.70;99.90
19007;DHT22;9636;47.382;8.480;2022-10-01T01:44:56;7.70;99.90
19007;DHT22;9636;47.382;8.480;2022-10-01T01:47:26;7.70;99.90
19007;DHT22;9636;47.382;8.480;2022-10-01T01:49:55;7.70;99.90
19007;DHT22;9636;47.382;8.480;2022-10-01T01:52:23;7.60;99.90
19007;DHT22;9636;47.382;8.480;2022-10-01T01:54:50;7.70;99.90
19007;DHT22;9636;47.382;8.480;2022-10-01T01:57:18;7.70;99.90
19007;DHT22;9636;47.382;8.480;2022-10-01T01:59:46;7.70;99.90
19007;DHT22;9636;47.382;8.480;2022-10-01T02:02:17;7.70;99.90
19007;DHT22;9636;47.382;8.480;2022-10-01T02:04:48;7.60;99.90
19007;DHT22;9636;47.382;8.480;2022-10-01T02:07:28;7.60;99.90
19007;DHT22;9636;47.382;8.480;2022-10-01T02:10:07;7.50;99.90
19007;DHT22;9636;47.382;8.480;2022-10-01T02:12:47;7.60;99.90
19007;DHT22;9636;47.382;8.480;2022-10-01T02:15:23;7.50;99.90
19007;DHT22;9636;47.382;8.480;2022-10-01T02:17:58;7.60;99.90
19007;DHT22;9636;47.382;8.480;2022-10-01T02:20:34;7.60;99.90
19007;DHT22;9636;47.382;8.480;2022-10-01T02:23:06;7.70;99.90
19007;DHT22;9636;47.382;8.480;2022-10-01T02:25:39;7.70;99.90
19007;DHT22;9636;47.382;8.480;2022-10-01T02:28:10;7.80;99.90
19007;DHT22;9636;47.382;8.480;2022-10-01T02:30:38;7.70;99.90
19007;DHT22;9636;47.382;8.480;2022-10-01T02:33:09;7.80;99.90
19007;DHT22;9636;47.382;8.480;2022-10-01T02:35:39;7.80;99.90
19007;DHT22;9636;47.382;8.480;2022-10-01T02:38:08;7.80;99.90
19007;DHT22;9636;47.382;8.480;2022-10-01T02:40:40;7.80;99.90
19007;DHT22;9636;47.382;8.480;2022-10-01T02:43:11;7.80;99.90
19007;DHT22;9636;47.382;8.480;2022-10-01T02:45:40;7.80;99.90
19007;DHT22;9636;47.382;8.480;2022-10-01T02:48:11;7.80;99.90
19007;DHT22;9636;47.382;8.480;2022-10-01T02:50:47;7.90;99.90
19007;DHT22;9636;47.382;8.480;2022-10-01T02:53:19;8.00;99.90
19007;DHT22;9636;47.382;8.480;2022-10-01T02:55:47;8.10;99.90
19007;DHT22;9636;47.382;8.480;2022-10-01T02:58:16;8.10;99.90
19007;DHT22;9636;47.382;8.480;2022-10-01T03:00:42;8.10;99.90
19007;DHT22;9636;47.382;8.480;2022-10-01T03:03:11;8.10;99.90
19007;DHT22;9636;47.382;8.480;2022-10-01T03:05:37;8.20;99.90
19007;DHT22;9636;47.382;8.480;2022-10-01T03:08:04;8.20;99.90
19007;DHT22;9636;47.382;8.480;2022-10-01T03:10:31;8.10;99.90
19007;DHT22;9636;47.382;8.480;2022-10-01T03:12:59;8.20;99.90
19007;DHT22;9636;47.382;8.480;2022-10-01T03:15:26;8.20;99.90
19007;DHT22;9636;47.382;8.480;2022-10-01T03:17:53;8.10;99.90
19007;DHT22;9636;47.382;8.480;2022-10-01T03:20:22;8.20;99.90
19007;DHT22;9636;47.382;8.480;2022-10-01T03:22:49;8.20;99.90
19007;DHT22;9636;47.382;8.480;2022-10-01T03:25:16;8.20;99.90
19007;DHT22;9636;47.382;8.480;2022-10-01T03:27:43;8.10;99.90
19007;DHT22;9636;47.382;8.480;2022-10-01T03:30:11;8.10;99.90
19007;DHT22;9636;47.382;8.480;2022-10-01T03:32:38;8.10;99.90
19007;DHT22;9636;47.382;8.480;2022-10-01T03:35:06;8.20;99.90
19007;DHT22;9636;47.382;8.480;2022-10-01T03:37:34;8.30;99.90
19007;DHT22;9636;47.382;8.480;2022-10-01T03:40:01;8.30;99.90
19007;DHT22;9636;47.382;8.480;2022-10-01T03:42:28;8.30;99.90
19007;DHT22;9636;47.382;8.480;2022-10-01T03:44:55;8.30;99.90
19007;DHT22;9636;47.382;8.480;2022-10-01T03:47:21;8.30;99.90
19007;DHT22;9636;47.382;8.480;2022-10-01T03:49:48;8.30;99.90
19007;DHT22;9636;47.382;8.480;2022-10-01T03:52:15;8.30;99.90
19007;DHT22;9636;47.382;8.480;2022-10-01T03:54:43;8.30;99.90
19007;DHT22;9636;47.382;8.480;2022-10-01T03:57:10;8.30;99.90
19007;DHT22;9636;47.382;8.480;2022-10-01T03:59:37;8.20;99.90
19007;DHT22;9636;47.382;8.480;2022-10-01T04:02:04;8.20;99.90
19007;DHT22;9636;47.382;8.480;2022-10-01T04:04:32;8.30;99.90
19007;DHT22;9636;47.382;8.480;2022-10-01T04:06:58;8.40;99.90
19007;DHT22;9636;47.382;8.480;2022-10-01T04:09:25;8.40;99.90
19007;DHT22;9636;47.382;8.480;2022-10-01T04:11:53;8.40;99.90
19007;DHT22;9636;47.382;8.480;2022-10-01T04:14:20;8.40;99.90
19007;DHT22;9636;47.382;8.480;2022-10-01T04:16:47;8.30;99.90
19007;DHT22;9636;47.382;8.480;2022-10-01T04:19:17;8.30;99.90
19007;DHT22;9636;47.382;8.480;2022-10-01T04:21:43;8.30;99.90
19007;DHT22;9636;47.382;8.480;2022-10-01T04:24:10;8.30;99.90
19007;DHT22;9636;47.382;8.480;2022-10-01T04:26:37;8.30;99.90
19007;DHT22;9636;47.382;8.480;2022-10-01T04:29:05;8.30;99.90
19007;DHT22;9636;47.382;8.480;2022-10-01T04:31:32;8.30;99.90
19007;DHT22;9636;47.382;8.480;2022-10-01T04:34:00;8.30;99.90
19007;DHT22;9636;47.382;8.480;2022-10-01T04:36:30;8.30;99.90
19007;DHT22;9636;47.382;8.480;2022-10-01T04:38:56;8.30;99.90
19007;DHT22;9636;47.382;8.480;2022-10-01T04:41:23;8.40;99.90
19007;DHT22;9636;47.382;8.480;2022-10-01T04:43:51;8.40;99.90
19007;DHT22;9636;47.382;8.480;2022-10-01T04:46:19;8.50;99.90
19007;DHT22;9636;47.382;8.480;2022-10-01T04:48:46;8.60;99.90
19007;DHT22;9636;47.382;8.480;2022-10-01T04:51:13;8.70;99.90
19007;DHT22;9636;47.382;8.480;2022-10-01T04:53:40;8.90;99.90
19007;DHT22;9636;47.382;8.480;2022-10-01T04:56:07;8.90;99.90
19007;DHT22;9636;47.382;8.480;2022-10-01T04:58:34;8.90;99.90
19007;DHT22;9636;47.382;8.480;2022-10-01T05:01:01;8.90;99.90
19007;DHT22;9636;47.382;8.480;2022-10-01T05:03:30;9.00;99.90
19007;DHT22;9636;47.382;8.480;2022-10-01T05:05:56;9.10;99.90
19007;DHT22;9636;47.382;8.480;2022-10-01T05:08:23;9.10;99.90
19007;DHT22;9636;47.382;8.480;2022-10-01T05:10:50;9.10;99.90
19007;DHT22;9636;47.382;8.480;2022-10-01T05:13:17;9.20;99.90
19007;DHT22;9636;47.382;8.480;2022-10-01T05:15:44;9.30;99.90
19007;DHT22;9636;47.382;8.480;2022-10-01T05:18:13;9.30;99.90
19007;DHT22;9636;47.382;8.480;2022-10-01T05:20:41;9.30;99.90
19007;DHT22;9636;47.382;8.480;2022-10-01T05:23:08;9.30;99.90
19007;DHT22;9636;47.382;8.480;2022-10-01T05:25:35;9.30;99.90
19007;DHT22;9636;47.382;8.480;2022-10-01T05:28:02;9.30;99.90
19007;DHT22;9636;47.382;8.480;2022-10-01T05:30:30;9.30;99.90
19007;DHT22;9636;47.382;8.480;2022-10-01T05:32:59;9.30;99.90
19007;DHT22;9636;47.382;8.480;2022-10-01T05:35:26;9.30;99.90
19007;DHT22;9636;47.382;8.480;2022-10-01T05:37:56;9.30;99.90
19007;DHT22;9636;47.382;8.480;2022-10-01T05:40:23;9.30;99.90
19007;DHT22;9636;47.382;8.480;2022-10-01T05:42:52;9.30;99.90
19007;DHT22;9636;47.382;8.480;2022-10-01T05:45:19;9.30;99.90
19007;DHT22;9636;47.382;8.480;2022-10-01T05:47:48;9.40;99.90
19007;DHT22;9636;47.382;8.480;2022-10-01T05:50:15;9.50;99.90
19007;DHT22;9636;47.382;8.480;2022-10-01T05:52:48;9.60;99.90
19007;DHT22;9636;47.382;8.480;2022-10-01T05:55:20;9.60;99.90
19007;DHT22;9636;47.382;8.480;2022-10-01T05:57:54;9.50;99.90
19007;DHT22;9636;47.382;8.480;2022-10-01T06:00:21;9.50;99.90
19007;DHT22;9636;47.382;8.480;2022-10-01T06:02:51;9.50;99.90
19007;DHT22;9636;47.382;8.480;2022-10-01T06:05:18;9.50;99.90
19007;DHT22;9636;47.382;8.480;2022-10-01T06:07:45;9.50;99.90
19007;DHT22;9636;47.382;8.480;2022-10-01T06:10:12;9.50;99.90
19007;DHT22;9636;47.382;8.480;2022-10-01T06:12:40;9.50;99.90
19007;DHT22;9636;47.382;8.480;2022-10-01T06:15:08;9.50;99.90
19007;DHT22;9636;47.382;8.480;2022-10-01T06:17:35;9.60;99.90
19007;DHT22;9636;47.382;8.480;2022-10-01T06:20:08;9.60;99.90
19007;DHT22;9636;47.382;8.480;2022-10-01T06:22:36;9.60;99.90
19007;DHT22;9636;47.382;8.480;2022-10-01T06:25:03;9.70;99.90
19007;DHT22;9636;47.382;8.480;2022-10-01T06:27:30;9.70;99.90
19007;DHT22;9636;47.382;8.480;2022-10-01T06:29:58;9.80;99.90
19007;DHT22;9636;47.382;8.480;2022-10-01T06:32:25;9.80;99.90
19007;DHT22;9636;47.382;8.480;2022-10-01T06:34:52;9.90;99.90
19007;DHT22;9636;47.382;8.480;2022-10-01T06:37:19;9.90;99.90
19007;DHT22;9636;47.382;8.480;2022-10-01T06:39:46;9.90;99.90
19007;DHT22;9636;47.382;8.480;2022-10-01T06:42:13;9.90;99.90
19007;DHT22;9636;47.382;8.480;2022-10-01T06:44:40;10.00;99.90
19007;DHT22;9636;47.382;8.480;2022-10-01T06:47:08;10.10;99.90
19007;DHT22;9636;47.382;8.480;2022-10-01T06:49:35;10.20;99.90
19007;DHT22;9636;47.382;8.480;2022-10-01T06:52:02;10.20;99.90
19007;DHT22;9636;47.382;8.480;2022-10-01T06:54:46;10.20;99.90
19007;DHT22;9636;47.382;8.480;2022-10-01T06:57:13;10.30;99.90
19007;DHT22;9636;47.382;8.480;2022-10-01T06:59:40;10.30;99.90
19007;DHT22;9636;47.382;8.480;2022-10-01T07:02:20;10.40;99.90
19007;DHT22;9636;47.382;8.480;2022-10-01T07:04:47;10.30;99.90
19007;DHT22;9636;47.382;8.480;2022-10-01T07:07:13;10.40;99.90
19007;DHT22;9636;47.382;8.480;2022-10-01T07:09:40;10.40;99.90
19007;DHT22;9636;47.382;8.480;2022-10-01T07:12:07;10.40;99.90
19007;DHT22;9636;47.382;8.480;2022-10-01T07:14:34;10.40;99.90
19007;DHT22;9636;47.382;8.480;2022-10-01T07:17:01;10.50;99.90
19007;DHT22;9636;47.382;8.480;2022-10-01T07:19:29;10.60;99.90
19007;DHT22;9636;47.382;8.480;2022-10-01T07:21:56;10.70;99.90
19007;DHT22;9636;47.382;8.480;2022-10-01T07:24:23;10.70;99.90
19007;DHT22;9636;47.382;8.480;2022-10-01T07:26:50;10.70;99.90
19007;DHT22;9636;47.382;8.480;2022-10-01T07:29:20;10.70;99.90
19007;DHT22;9636;47.382;8.480;2022-10-01T07:31:47;10.70;99.90
19007;DHT22;9636;47.382;8.480;2022-10-01T07:34:14;10.60;99.90
19007;DHT22;9636;47.382;8.480;2022-10-01T07:36:42;10.50;99.90
19007;DHT22;9636;47.382;8.480;2022-10-01T07:39:10;10.60;99.90
19007;DHT22;9636;47.382;8.480;2022-10-01T07:41:37;10.50;99.90
19007;DHT22;9636;47.382;8.480;2022-10-01T07:44:04;10.50;99.90
19007;DHT22;9636;47.382;8.480;2022-10-01T07:46:30;10.40;99.90
19007;DHT22;9636;47.382;8.480;2022-10-01T07:48:57;10.40;99.90
19007;DHT22;9636;47.382;8.480;2022-10-01T07:51:24;10.40;99.90
19007;DHT22;9636;47.382;8.480;2022-10-01T07:53:53;10.50;99.90
19007;DHT22;9636;47.382;8.480;2022-10-01T07:56:19;10.50;99.90
19007;DHT22;9636;47.382;8.480;2022-10-01T08:01:22;10.60;99.90
19007;DHT22;9636;47.382;8.480;2022-10-01T08:03:49;10.60;99.90
19007;DHT22;9636;47.382;8.480;2022-10-01T08:06:16;10.60;99.90
19007;DHT22;9636;47.382;8.480;2022-10-01T08:08:43;10.50;99.90
19007;DHT22;9636;47.382;8.480;2022-10-01T08:11:12;10.60;99.90
19007;DHT22;9636;47.382;8.480;2022-10-01T08:13:42;10.60;99.90
19007;DHT22;9636;47.382;8.480;2022-10-01T08:16:10;10.60;99.90
19007;DHT22;9636;47.382;8.480;2022-10-01T08:18:37;10.60;99.90
19007;DHT22;9636;47.382;8.480;2022-10-01T08:21:05;10.50;99.90
19007;DHT22;9636;47.382;8.480;2022-10-01T08:23:33;10.60;99.90
19007;DHT22;9636;47.382;8.480;2022-10-01T08:26:01;10.60;99.90
19007;DHT22;9636;47.382;8.480;2022-10-01T08:28:30;10.60;99.90
19007;DHT22;9636;47.382;8.480;2022-10-01T08:33:32;10.70;99.90
19007;DHT22;9636;47.382;8.480;2022-10-01T08:36:00;10.80;99.90
19007;DHT22;9636;47.382;8.480;2022-10-01T08:38:28;11.20;99.90
19007;DHT22;9636;47.382;8.480;2022-10-01T08:41:06;10.80;99.90
19007;DHT22;9636;47.382;8.480;2022-10-01T09:43:43;11.30;99.90
19007;DHT22;9636;47.382;8.480;2022-10-01T09:46:14;11.30;99.90
19007;DHT22;9636;47.382;8.480;2022-10-01T09:48:48;11.40;99.90
19007;DHT22;9636;47.382;8.480;2022-10-01T09:51:22;11.30;99.90
19007;DHT22;9636;47.382;8.480;2022-10-01T09:54:01;11.30;99.90
19007;DHT22;9636;47.382;8.480;2022-10-01T09:56:33;11.40;99.90
19007;DHT22;9636;47.382;8.480;2022-10-01T09:59:05;11.30;99.90
19007;DHT22;9636;47.382;8.480;2022-10-01T10:01:40;11.40;99.90
19007;DHT22;9636;47.382;8.480;2022-10-01T10:04:09;11.40;99.90
19007;DHT22;9636;47.382;8.480;2022-10-01T10:06:36;11.40;99.90
19007;DHT22;9636;47.382;8.480;2022-10-01T10:09:13;11.50;99.90
19007;DHT22;9636;47.382;8.480;2022-10-01T10:11:41;12.00;99.90
19007;DHT22;9636;47.382;8.480;2022-10-01T10:14:16;11.60;99.90
19007;DHT22;9636;47.382;8.480;2022-10-01T10:16:44;11.60;99.90
19007;DHT22;9636;47.382;8.480;2022-10-01T10:19:16;11.60;99.90
19007;DHT22;9636;47.382;8.480;2022-10-01T10:21:51;11.70;99.90
19007;DHT22;9636;47.382;8.480;2022-10-01T10:24:23;11.60;99.90
19007;DHT22;9636;47.382;8.480;2022-10-01T10:27:21;11.70;99.90
19007;DHT22;9636;47.382;8.480;2022-10-01T10:30:00;11.80;99.90
19007;DHT22;9636;47.382;8.480;2022-10-01T10:32:28;11.80;99.90
19007;DHT22;9636;47.382;8.480;2022-10-01T10:34:57;11.80;99.90
19007;DHT22;9636;47.382;8.480;2022-10-01T10:37:30;11.90;99.90
19007;DHT22;9636;47.382;8.480;2022-10-01T10:39:58;12.00;99.90
19007;DHT22;9636;47.382;8.480;2022-10-01T10:42:26;12.10;99.90
19007;DHT22;9636;47.382;8.480;2022-10-01T10:45:14;11.90;99.90
19007;DHT22;9636;47.382;8.480;2022-10-01T10:47:47;11.80;99.90
19007;DHT22;9636;47.382;8.480;2022-10-01T10:50:27;11.80;99.90
19007;DHT22;9636;47.382;8.480;2022-10-01T10:53:10;11.90;99.90
19007;DHT22;9636;47.382;8.480;2022-10-01T10:55:55;11.90;99.90
19007;DHT22;9636;47.382;8.480;2022-10-01T10:58:39;12.30;99.90
19007;DHT22;9636;47.382;8.480;2022-10-01T11:01:14;12.00;99.90
19007;DHT22;9636;47.382;8.480;2022-10-01T11:04:00;12.00;99.90
19007;DHT22;9636;47.382;8.480;2022-10-01T11:06:34;12.00;99.90
19007;DHT22;9636;47.382;8.480;2022-10-01T11:09:06;12.30;99.90
19007;DHT22;9636;47.382;8.480;2022-10-01T11:12:03;12.10;99.90
19007;DHT22;9636;47.382;8.480;2022-10-01T11:15:34;12.20;99.90
19007;DHT22;9636;47.382;8.480;2022-10-01T11:18:35;12.20;99.90
19007;DHT22;9636;47.382;8.480;2022-10-01T11:21:25;12.50;99.90
19007;DHT22;9636;47.382;8.480;2022-10-01T11:27:55;12.20;99.90
19007;DHT22;9636;47.382;8.480;2022-10-01T11:38:12;12.30;99.90
19007;DHT22;9636;47.382;8.480;2022-10-01T11:41:05;12.20;99.90
19007;DHT22;9636;47.382;8.480;2022-10-01T11:43:54;12.20;99.90
19007;DHT22;9636;47.382;8.480;2022-10-01T13:22:46;11.50;99.90
19007;DHT22;9636;47.382;8.480;2022-10-01T13:44:50;11.60;99.90
19007;DHT22;9636;47.382;8.480;2022-10-01T14:01:39;11.60;99.90
19007;DHT22;9636;47.382;8.480;2022-10-01T14:04:14;11.60;99.90
19007;DHT22;9636;47.382;8.480;2022-10-01T14:06:49;11.60;99.90
19007;DHT22;9636;47.382;8.480;2022-10-01T14:09:21;11.60;99.90
19007;DHT22;9636;47.382;8.480;2022-10-01T14:11:50;11.60;99.90
19007;DHT22;9636;47.382;8.480;2022-10-01T14:14:37;11.60;99.90
19007;DHT22;9636;47.382;8.480;2022-10-01T14:17:26;11.70;99.90
19007;DHT22;9636;47.382;8.480;2022-10-01T14:19:54;11.60;99.90
19007;DHT22;9636;47.382;8.480;2022-10-01T14:22:43;11.60;99.90
19007;DHT22;9636;47.382;8.480;2022-10-01T14:25:25;11.60;99.90
19007;DHT22;9636;47.382;8.480;2022-10-01T14:28:10;11.80;99.90
19007;DHT22;9636;47.382;8.480;2022-10-01T14:30:47;11.70;99.90
19007;DHT22;9636;47.382;8.480;2022-10-01T14:36:17;11.80;99.90
19007;DHT22;9636;47.382;8.480;2022-10-01T14:38:44;11.80;99.90
19007;DHT22;9636;47.382;8.480;2022-10-01T14:41:16;11.80;99.90
19007;DHT22;9636;47.382;8.480;2022-10-01T14:43:44;11.80;99.90
19007;DHT22;9636;47.382;8.480;2022-10-01T14:46:13;11.80;99.90
19007;DHT22;9636;47.382;8.480;2022-10-01T14:48:42;12.00;99.90
19007;DHT22;9636;47.382;8.480;2022-10-01T14:51:23;12.00;99.90
19007;DHT22;9636;47.382;8.480;2022-10-01T14:53:51;11.90;99.90
19007;DHT22;9636;47.382;8.480;2022-10-01T14:56:19;11.80;99.90
19007;DHT22;9636;47.382;8.480;2022-10-01T14:58:51;11.80;99.90
19007;DHT22;9636;47.382;8.480;2022-10-01T15:01:20;11.80;99.90
19007;DHT22;9636;47.382;8.480;2022-10-01T15:03:50;11.80;99.90
19007;DHT22;9636;47.382;8.480;2022-10-01T15:06:19;11.80;99.90
19007;DHT22;9636;47.382;8.480;2022-10-01T15:08:48;11.80;99.90
19007;DHT22;9636;47.382;8.480;2022-10-01T15:11:17;11.80;99.90
19007;DHT22;9636;47.382;8.480;2022-10-01T15:13:47;11.80;99.90
19007;DHT22;9636;47.382;8.480;2022-10-01T15:16:16;11.80;99.90
19007;DHT22;9636;47.382;8.480;2022-10-01T15:18:46;11.80;99.90
19007;DHT22;9636;47.382;8.480;2022-10-01T15:21:18;11.70;99.90
19007;DHT22;9636;47.382;8.480;2022-10-01T15:23:47;11.80;99.90
19007;DHT22;9636;47.382;8.480;2022-10-01T15:26:20;11.80;99.90
19007;DHT22;9636;47.382;8.480;2022-10-01T15:28:48;11.80;99.90
19007;DHT22;9636;47.382;8.480;2022-10-01T15:31:15;11.90;99.90
19007;DHT22;9636;47.382;8.480;2022-10-01T15:33:44;11.90;99.90
19007;DHT22;9636;47.382;8.480;2022-10-01T15:36:16;11.90;99.90
19007;DHT22;9636;47.382;8.480;2022-10-01T15:38:45;11.90;99.90
19007;DHT22;9636;47.382;8.480;2022-10-01T15:41:20;12.00;99.90
19007;DHT22;9636;47.382;8.480;2022-10-01T15:43:47;12.00;99.90
19007;DHT22;9636;47.382;8.480;2022-10-01T15:46:24;11.90;99.90
19007;DHT22;9636;47.382;8.480;2022-10-01T15:49:13;12.00;99.90
19007;DHT22;9636;47.382;8.480;2022-10-01T15:51:47;12.00;99.90
19007;DHT22;9636;47.382;8.480;2022-10-01T15:54:36;12.10;99.90
19007;DHT22;9636;47.382;8.480;2022-10-01T15:57:03;12.10;99.90
19007;DHT22;9636;47.382;8.480;2022-10-01T15:59:31;12.10;99.90
19007;DHT22;9636;47.382;8.480;2022-10-01T16:01:59;12.10;99.90
19007;DHT22;9636;47.382;8.480;2022-10-01T16:04:26;12.00;99.90
19007;DHT22;9636;47.382;8.480;2022-10-01T16:06:54;11.90;99.90
19007;DHT22;9636;47.382;8.480;2022-10-01T16:09:22;12.00;99.90
19007;DHT22;9636;47.382;8.480;2022-10-01T16:11:52;11.90;99.90
19007;DHT22;9636;47.382;8.480;2022-10-01T16:14:28;11.90;99.90
19007;DHT22;9636;47.382;8.480;2022-10-01T16:20:01;11.90;99.90
19007;DHT22;9636;47.382;8.480;2022-10-01T16:22:50;11.90;99.90
19007;DHT22;9636;47.382;8.480;2022-10-01T16:25:30;11.80;99.90
19007;DHT22;9636;47.382;8.480;2022-10-01T16:27:59;11.80;99.90
19007;DHT22;9636;47.382;8.480;2022-10-01T16:30:28;11.80;99.90
19007;DHT22;9636;47.382;8.480;2022-10-01T16:32:56;11.80;99.90
19007;DHT22;9636;47.382;8.480;2022-10-01T16:35:24;11.90;99.90
19007;DHT22;9636;47.382;8.480;2022-10-01T16:37:54;11.90;99.90
19007;DHT22;9636;47.382;8.480;2022-10-01T16:40:24;11.90;99.90
19007;DHT22;9636;47.382;8.480;2022-10-01T16:42:52;11.90;99.90
19007;DHT22;9636;47.382;8.480;2022-10-01T16:45:20;11.90;99.90
19007;DHT22;9636;47.382;8.480;2022-10-01T16:47:49;12.00;99.90
19007;DHT22;9636;47.382;8.480;2022-10-01T16:50:17;11.90;99.90
19007;DHT22;9636;47.382;8.480;2022-10-01T16:52:45;12.00;99.90
19007;DHT22;9636;47.382;8.480;2022-10-01T16:55:18;12.00;99.90
19007;DHT22;9636;47.382;8.480;2022-10-01T16:57:47;12.00;99.90
19007;DHT22;9636;47.382;8.480;2022-10-01T17:00:14;12.00;99.90
19007;DHT22;9636;47.382;8.480;2022-10-01T17:02:41;12.00;99.90
19007;DHT22;9636;47.382;8.480;2022-10-01T17:05:15;12.10;99.90
19007;DHT22;9636;47.382;8.480;2022-10-01T17:07:43;12.10;99.90
19007;DHT22;9636;47.382;8.480;2022-10-01T17:10:10;12.10;99.90
19007;DHT22;9636;47.382;8.480;2022-10-01T17:12:40;12.10;99.90
19007;DHT22;9636;47.382;8.480;2022-10-01T17:15:11;12.10;99.90
19007;DHT22;9636;47.382;8.480;2022-10-01T17:17:40;12.10;99.90
19007;DHT22;9636;47.382;8.480;2022-10-01T17:20:07;12.20;99.90
19007;DHT22;9636;47.382;8.480;2022-10-01T17:22:34;12.20;99.90
19007;DHT22;9636;47.382;8.480;2022-10-01T17:25:01;12.30;99.90
19007;DHT22;9636;47.382;8.480;2022-10-01T17:27:28;12.30;99.90
19007;DHT22;9636;47.382;8.480;2022-10-01T17:29:56;12.30;99.90
19007;DHT22;9636;47.382;8.480;2022-10-01T17:32:23;12.30;99.90
19007;DHT22;9636;47.382;8.480;2022-10-01T17:34:50;12.40;99.90
19007;DHT22;9636;47.382;8.480;2022-10-01T17:37:19;12.40;99.90
19007;DHT22;9636;47.382;8.480;2022-10-01T17:39:47;12.40;99.90
19007;DHT22;9636;47.382;8.480;2022-10-01T17:42:14;12.40;99.90
19007;DHT22;9636;47.382;8.480;2022-10-01T17:44:42;12.30;99.90
19007;DHT22;9636;47.382;8.480;2022-10-01T17:47:10;12.30;99.90
19007;DHT22;9636;47.382;8.480;2022-10-01T17:49:38;12.30;99.90
19007;DHT22;9636;47.382;8.480;2022-10-01T17:52:05;12.40;99.90
19007;DHT22;9636;47.382;8.480;2022-10-01T17:54:31;12.40;99.90
19007;DHT22;9636;47.382;8.480;2022-10-01T17:56:58;12.50;99.90
19007;DHT22;9636;47.382;8.480;2022-10-01T17:59:25;12.50;99.90
19007;DHT22;9636;47.382;8.480;2022-10-01T18:01:52;12.60;99.90
19007;DHT22;9636;47.382;8.480;2022-10-01T18:04:20;12.50;99.90
19007;DHT22;9636;47.382;8.480;2022-10-01T18:06:47;12.50;99.90
19007;DHT22;9636;47.382;8.480;2022-10-01T18:09:16;12.60;99.90
19007;DHT22;9636;47.382;8.480;2022-10-01T18:11:43;12.60;99.90
19007;DHT22;9636;47.382;8.480;2022-10-01T18:14:10;12.70;99.90
19007;DHT22;9636;47.382;8.480;2022-10-01T18:16:37;12.70;99.90
19007;DHT22;9636;47.382;8.480;2022-10-01T18:19:04;12.80;99.90
19007;DHT22;9636;47.382;8.480;2022-10-01T18:21:32;12.80;99.90
19007;DHT22;9636;47.382;8.480;2022-10-01T18:24:00;12.70;99.90
19007;DHT22;9636;47.382;8.480;2022-10-01T18:26:26;12.80;99.90
19007;DHT22;9636;47.382;8.480;2022-10-01T18:28:53;12.80;99.90
19007;DHT22;9636;47.382;8.480;2022-10-01T18:31:23;12.80;99.90
19007;DHT22;9636;47.382;8.480;2022-10-01T18:33:53;12.80;99.90
19007;DHT22;9636;47.382;8.480;2022-10-01T18:36:25;12.80;99.90
19007;DHT22;9636;47.382;8.480;2022-10-01T18:39:02;12.80;99.90
19007;DHT22;9636;47.382;8.480;2022-10-01T18:41:34;12.90;99.90
19007;DHT22;9636;47.382;8.480;2022-10-01T18:44:02;12.90;99.90
19007;DHT22;9636;47.382;8.480;2022-10-01T18:46:45;12.90;99.90
19007;DHT22;9636;47.382;8.480;2022-10-01T18:49:26;12.90;99.90
19007;DHT22;9636;47.382;8.480;2022-10-01T18:52:05;12.90;99.90
19007;DHT22;9636;47.382;8.480;2022-10-01T18:54:56;12.90;99.90
19007;DHT22;9636;47.382;8.480;2022-10-01T18:57:40;13.00;99.90
19007;DHT22;9636;47.382;8.480;2022-10-01T19:00:14;13.00;99.90
19007;DHT22;9636;47.382;8.480;2022-10-01T19:03:04;13.10;99.90
19007;DHT22;9636;47.382;8.480;2022-10-01T19:05:57;13.40;99.90
19007;DHT22;9636;47.382;8.480;2022-10-01T19:08:55;13.40;99.90
19007;DHT22;9636;47.382;8.480;2022-10-01T19:11:32;13.40;99.90
19007;DHT22;9636;47.382;8.480;2022-10-01T19:14:17;13.30;99.90
19007;DHT22;9636;47.382;8.480;2022-10-01T19:16:53;13.20;99.90
19007;DHT22;9636;47.382;8.480;2022-10-01T19:19:29;13.20;99.90
19007;DHT22;9636;47.382;8.480;2022-10-01T19:22:01;13.40;99.90
19007;DHT22;9636;47.382;8.480;2022-10-01T19:24:39;13.40;99.90
19007;DHT22;9636;47.382;8.480;2022-10-01T19:27:19;13.30;99.90
19007;DHT22;9636;47.382;8.480;2022-10-01T19:30:03;13.30;99.90
19007;DHT22;9636;47.382;8.480;2022-10-01T19:32:37;13.30;99.90
19007;DHT22;9636;47.382;8.480;2022-10-01T19:35:13;13.30;99.90
19007;DHT22;9636;47.382;8.480;2022-10-01T19:37:45;13.40;99.90
19007;DHT22;9636;47.382;8.480;2022-10-01T19:40:18;13.40;99.90
19007;DHT22;9636;47.382;8.480;2022-10-01T19:42:52;13.30;99.90
19007;DHT22;9636;47.382;8.480;2022-10-01T19:45:24;13.30;99.90
19007;DHT22;9636;47.382;8.480;2022-10-01T19:47:57;13.20;99.90
19007;DHT22;9636;47.382;8.480;2022-10-01T19:50:32;13.30;99.90